Relax — ILWX2 — position and weather

sailwx.info

Track history (hours):
 
Tides and Currents Weather Stations Pressure Air Temp Water Temp Dewpoint Dewpoint Depression Visibility Wind Speed Wind Dir Waves Ship Positions

Relax

Last reported at 2016-Apr-28 15:10 UTC. Time now 2016-Apr-30 01:21 UTC.
Position N 40°37' E 014°29'.

MMSI: 247277800.

Date/timePositionNaut miles runAvg speedWind from/ knotsBaromVisibWave heightAir tempDewpointWater temp
2016-Apr-28 15:10N 40°37' E 014°29'1117.2
2016-Apr-28 14:33N 40°34' E 014°15'1 0.7
2016-Apr-28 13:31N 40°34' E 014°14'0 0.0
2016-Apr-28 12:20N 40°34' E 014°14'0 0.0
2016-Apr-28 11:32N 40°34' E 014°14'0 0.0
2016-Apr-28 10:32N 40°34' E 014°14'0 0.0
2016-Apr-28 09:26N 40°34' E 014°14'5 5.8
2016-Apr-28 08:33N 40°34' E 014°21'5 0.2
2016-Apr-27 12:33N 40°35' E 014°27'10 9.4
2016-Apr-27 11:29N 40°34' E 014°14'0 0.0
2016-Apr-27 10:23N 40°34' E 014°14'0 0.0
2016-Apr-27 09:23N 40°34' E 014°14'5 6.3
2016-Apr-27 08:33N 40°34' E 014°21'7 0.4
2016-Apr-26 15:23N 40°37' E 014°30'1112.8
2016-Apr-26 14:33N 40°34' E 014°16'2 1.5
2016-Apr-26 13:30N 40°34' E 014°14'0 0.0
2016-Apr-26 12:30N 40°34' E 014°14'0 0.0
2016-Apr-26 11:24N 40°34' E 014°14'0 0.0
2016-Apr-26 10:24N 40°34' E 014°14'0 0.0
2016-Apr-26 09:24N 40°34' E 014°14'7 8.1
2016-Apr-26 08:33N 40°34' E 014°23'  
2016-Apr-22 15:25N 40°36' E 014°31'1113.1
2016-Apr-22 14:33N 40°34' E 014°17'2 2.1
2016-Apr-22 13:33N 40°34' E 014°14'0 0.0
2016-Apr-22 12:33N 40°34' E 014°14'0 0.0
2016-Apr-22 11:27N 40°34' E 014°14'0 0.0
2016-Apr-22 10:33N 40°34' E 014°14'0 0.1
2016-Apr-22 09:26N 40°34' E 014°14'4 4.6
2016-Apr-22 08:33N 40°34' E 014°19'8 0.5
2016-Apr-21 15:07N 40°37' E 014°29'1017.5
2016-Apr-21 14:33N 40°34' E 014°17'2 1.8
2016-Apr-21 13:30N 40°34' E 014°14'0 0.0
2016-Apr-21 12:12N 40°34' E 014°14'0 0.0
2016-Apr-21 11:30N 40°34' E 014°14'0 0.0
2016-Apr-21 10:30N 40°34' E 014°14'0 0.0
2016-Apr-21 09:24N 40°34' E 014°14'  
2016-Apr-18 15:27N 40°37' E 014°31'  
Track history (hours):
 
Tides and Currents Weather Stations Pressure Air Temp Water Temp Dewpoint Dewpoint Depression Visibility Wind Speed Wind Dir Waves Ship Positions

Relax

Last reported at 2016-Apr-28 15:10 UTC. Time now 2016-Apr-30 01:21 UTC.
Position N 40°37' E 014°29'.

MMSI: 247277800.

Date/timePositionNaut miles runAvg speedWind from/ knotsBaromVisibWave heightAir tempDewpointWater temp
2016-Apr-28 15:10N 40°37' E 014°29'1117.2
2016-Apr-28 14:33N 40°34' E 014°15'1 0.7
2016-Apr-28 13:31N 40°34' E 014°14'0 0.0
2016-Apr-28 12:20N 40°34' E 014°14'0 0.0
2016-Apr-28 11:32N 40°34' E 014°14'0 0.0
2016-Apr-28 10:32N 40°34' E 014°14'0 0.0
2016-Apr-28 09:26N 40°34' E 014°14'5 5.8
2016-Apr-28 08:33N 40°34' E 014°21'5 0.2
2016-Apr-27 12:33N 40°35' E 014°27'10 9.4
2016-Apr-27 11:29N 40°34' E 014°14'0 0.0
2016-Apr-27 10:23N 40°34' E 014°14'0 0.0
2016-Apr-27 09:23N 40°34' E 014°14'5 6.3
2016-Apr-27 08:33N 40°34' E 014°21'7 0.4
2016-Apr-26 15:23N 40°37' E 014°30'1112.8
2016-Apr-26 14:33N 40°34' E 014°16'2 1.5
2016-Apr-26 13:30N 40°34' E 014°14'0 0.0
2016-Apr-26 12:30N 40°34' E 014°14'0 0.0
2016-Apr-26 11:24N 40°34' E 014°14'0 0.0
2016-Apr-26 10:24N 40°34' E 014°14'0 0.0
2016-Apr-26 09:24N 40°34' E 014°14'7 8.1
2016-Apr-26 08:33N 40°34' E 014°23'  
2016-Apr-22 15:25N 40°36' E 014°31'1113.1
2016-Apr-22 14:33N 40°34' E 014°17'2 2.1
2016-Apr-22 13:33N 40°34' E 014°14'0 0.0
2016-Apr-22 12:33N 40°34' E 014°14'0 0.0
2016-Apr-22 11:27N 40°34' E 014°14'0 0.0
2016-Apr-22 10:33N 40°34' E 014°14'0 0.1
2016-Apr-22 09:26N 40°34' E 014°14'4 4.6
2016-Apr-22 08:33N 40°34' E 014°19'8 0.5
2016-Apr-21 15:07N 40°37' E 014°29'1017.5
2016-Apr-21 14:33N 40°34' E 014°17'2 1.8
2016-Apr-21 13:30N 40°34' E 014°14'0 0.0
2016-Apr-21 12:12N 40°34' E 014°14'0 0.0
2016-Apr-21 11:30N 40°34' E 014°14'0 0.0
2016-Apr-21 10:30N 40°34' E 014°14'0 0.0
2016-Apr-21 09:24N 40°34' E 014°14'  
2016-Apr-18 15:27N 40°37' E 014°31'  

Dump ship's entire track history